Time;durP1;ratioP1;P1;durP2;ratioP2;P2;SDS_P1;SDS_P2;PMS_P1;PMS_P2;Temp;Humidity;BMP_temperature;BMP_pressure;BME280_temperature;BME280_humidity;BME280_pressure;Samples;Min_cycle;Max_cycle;Signal;HPM_P1;HPM_P2
2024/01/02 00:02:12;;;;;;;52.08;37.97;;;230.50;2252.80;;;;;;5069879;28;20033;-60
2024/01/02 00:04:37;;;;;;;56.72;41.80;;;230.60;2252.80;;;;;;5069681;28;20405;-61
2024/01/02 00:07:03;;;;;;;55.40;41.35;;;230.60;2252.80;;;;;;5069743;28;20166;-61
2024/01/02 00:09:29;;;;;;;112.90;70.55;;;205.70;2252.80;;;;;;5069593;28;20021;-61
2024/01/02 00:11:55;;;;;;;89.13;64.07;;;205.20;2252.80;;;;;;5069867;28;20021;-61
2024/01/02 00:14:20;;;;;;;98.85;70.72;;;205.20;2252.80;;;;;;5069500;28;20031;-61
2024/01/02 00:16:46;;;;;;;87.20;61.92;;;205.30;2252.80;;;;;;5069246;28;20039;-60
2024/01/02 00:19:12;;;;;;;241.88;135.55;;;205.40;2252.80;;;;;;5068305;28;20029;-61
2024/01/02 00:21:38;;;;;;;110.25;59.70;;;205.50;2252.80;;;;;;5067480;28;20324;-61
2024/01/02 00:24:05;;;;;;;99.70;60.55;;;205.70;2252.80;;;;;;5067502;28;20028;-59
2024/01/02 00:26:31;;;;;;;93.50;68.13;;;205.70;2252.80;;;;;;5067884;28;20024;-60
2024/01/02 00:28:58;;;;;;;94.28;64.05;;;205.70;2252.80;;;;;;5068063;28;20108;-61
2024/01/02 00:31:24;;;;;;;143.02;89.55;;;230.40;2252.80;;;;;;5069017;28;20029;-60
2024/01/02 00:33:50;;;;;;;80.35;55.85;;;230.40;2252.80;;;;;;5068847;28;20073;-60
2024/01/02 00:36:15;;;;;;;126.18;74.70;;;230.40;2252.80;;;;;;5068435;28;20117;-59
2024/01/02 00:38:41;;;;;;;140.85;74.93;;;230.40;2252.80;;;;;;5068427;28;20123;-61
2024/01/02 00:41:07;;;;;;;148.98;86.90;;;230.40;2252.80;;;;;;5068638;28;20368;-62
2024/01/02 00:43:33;;;;;;;132.93;65.60;;;230.40;2252.80;;;;;;5069036;28;20028;-61
2024/01/02 00:46:00;;;;;;;59.20;31.65;;;230.50;2252.80;;;;;;5068846;28;20391;-61
2024/01/02 00:48:26;;;;;;;73.80;39.22;;;230.50;2252.80;;;;;;5069362;28;20478;-60
2024/01/02 00:50:52;;;;;;;118.53;59.55;;;230.40;2252.80;;;;;;5069227;28;20024;-61
2024/01/02 00:53:19;;;;;;;52.17;28.38;;;230.40;2252.80;;;;;;5069060;28;20079;-61
2024/01/02 00:55:46;;;;;;;61.00;41.92;;;205.70;2252.80;;;;;;5069330;28;20028;-61
2024/01/02 00:58:11;;;;;;;61.03;43.35;;;205.50;2252.80;;;;;;5069340;28;20056;-61
2024/01/02 01:00:37;;;;;;;58.78;41.30;;;205.40;2252.80;;;;;;5069097;28;20094;-61
2024/01/02 01:03:04;;;;;;;69.53;44.05;;;205.40;2252.80;;;;;;5069449;28;20079;-60
2024/01/02 01:05:30;;;;;;;58.67;40.38;;;205.40;2252.80;;;;;;5069062;28;20530;-61
2024/01/02 01:07:56;;;;;;;55.65;37.95;;;205.30;2252.80;;;;;;5068814;28;20117;-61
2024/01/02 01:10:22;;;;;;;57.17;39.33;;;205.40;2252.80;;;;;;5069257;28;20054;-60
2024/01/02 01:12:48;;;;;;;121.22;78.35;;;205.20;2252.80;;;;;;5068823;28;20033;-61
2024/01/02 01:15:13;;;;;;;170.07;104.13;;;205.30;2252.80;;;;;;5069387;28;20031;-61
2024/01/02 01:17:39;;;;;;;78.18;55.08;;;205.30;2252.80;;;;;;5068887;28;20039;-61
2024/01/02 01:20:05;;;;;;;79.88;54.90;;;205.30;2252.80;;;;;;5069033;28;20016;-61
2024/01/02 01:22:31;;;;;;;85.57;59.42;;;205.30;2252.80;;;;;;5069061;28;20036;-60
2024/01/02 01:24:57;;;;;;;85.45;58.72;;;205.40;2252.80;;;;;;5069011;28;20169;-61
2024/01/02 01:27:23;;;;;;;77.00;54.67;;;205.30;2252.80;;;;;;5069383;28;20032;-60
2024/01/02 01:29:49;;;;;;;73.22;47.97;;;205.20;2252.80;;;;;;5068853;28;20508;-61
2024/01/02 01:32:14;;;;;;;92.75;62.95;;;205.30;2252.80;;;;;;5069048;28;20033;-61
2024/01/02 01:34:41;;;;;;;77.35;50.58;;;205.20;2252.80;;;;;;5068874;28;20075;-61
2024/01/02 01:37:06;;;;;;;111.03;67.72;;;205.20;2252.80;;;;;;5072472;28;20037;-61
2024/01/02 01:39:32;;;;;;;70.40;45.80;;;205.30;2252.80;;;;;;5072635;28;20105;-60
2024/01/02 01:41:58;;;;;;;72.30;49.40;;;205.50;2252.80;;;;;;5072562;28;20020;-61
2024/01/02 01:44:24;;;;;;;54.90;36.60;;;205.50;2252.80;;;;;;5072700;28;20575;-61
2024/01/02 01:46:49;;;;;;;103.25;64.28;;;205.50;2252.80;;;;;;5072528;28;20024;-61
2024/01/02 01:49:16;;;;;;;145.43;84.18;;;205.50;2252.80;;;;;;5072413;28;20360;-59
2024/01/02 01:51:43;;;;;;;110.03;69.07;;;205.50;2252.80;;;;;;5054973;28;20387;-61
2024/01/02 01:54:14;;;;;;;57.47;37.20;;;205.50;2252.80;;;;;;5072093;28;20086;-61
2024/01/02 01:56:42;;;;;;;38.30;26.63;;;205.20;2252.80;;;;;;5072161;28;20028;-62
2024/01/02 01:59:09;;;;;;;55.00;38.15;;;205.20;2252.80;;;;;;5072091;28;20429;-61
2024/01/02 02:01:35;;;;;;;50.75;34.53;;;205.20;2252.80;;;;;;5072410;28;20491;-61
2024/01/02 02:04:02;;;;;;;51.45;34.72;;;205.30;2252.80;;;;;;5071971;28;20043;-61
2024/01/02 02:06:28;;;;;;;41.72;28.02;;;205.20;2252.80;;;;;;5071966;28;20019;-61
2024/01/02 02:08:54;;;;;;;72.18;41.88;;;205.10;2252.80;;;;;;5072063;28;20123;-61
2024/01/02 02:11:20;;;;;;;65.53;36.08;;;205.20;2252.80;;;;;;5071834;28;20025;-61
2024/01/02 02:13:49;;;;;;;40.45;24.85;;;205.20;2252.80;;;;;;5072274;28;20033;-61
2024/01/02 02:16:16;;;;;;;46.53;25.35;;;205.20;2252.80;;;;;;5072110;28;20036;-61
2024/01/02 02:18:42;;;;;;;24.83;20.90;;;205.10;2252.80;;;;;;5071871;28;20029;-62
2024/01/02 02:21:08;;;;;;;48.80;34.85;;;205.30;2252.80;;;;;;5071576;28;20023;-61
2024/01/02 02:23:33;;;;;;;140.45;75.15;;;205.30;2252.80;;;;;;5071883;28;20032;-62
2024/01/02 02:25:59;;;;;;;111.70;64.72;;;205.30;2252.80;;;;;;5071918;28;20388;-60
2024/01/02 02:28:25;;;;;;;44.83;24.35;;;205.40;2252.80;;;;;;5072026;28;20028;-61
2024/01/02 02:30:51;;;;;;;46.08;27.42;;;205.40;2252.80;;;;;;5071590;28;20025;-61
2024/01/02 02:33:17;;;;;;;39.72;21.50;;;205.50;2252.80;;;;;;5071625;28;20113;-62
2024/01/02 02:35:42;;;;;;;51.42;28.02;;;205.50;2252.80;;;;;;5071707;28;20048;-62
2024/01/02 02:38:08;;;;;;;85.70;46.47;;;205.30;2252.80;;;;;;5071242;28;20032;-61
2024/01/02 02:40:35;;;;;;;16.58;10.82;;;205.20;2252.80;;;;;;5071423;28;20029;-61
2024/01/02 02:43:01;;;;;;;19.05;10.45;;;205.10;2252.80;;;;;;5071302;28;20482;-59
2024/01/02 02:45:27;;;;;;;14.95;10.25;;;204.90;2252.80;;;;;;5071301;28;20032;-60
2024/01/02 02:47:53;;;;;;;16.25;10.68;;;180.10;2252.80;;;;;;5071533;28;20453;-59
2024/01/02 02:50:19;;;;;;;15.05;10.93;;;180.10;2252.80;;;;;;5071334;28;20031;-60
2024/01/02 02:52:45;;;;;;;84.93;40.50;;;204.80;2252.80;;;;;;5071263;28;20409;-60
2024/01/02 02:55:11;;;;;;;119.25;52.40;;;204.90;2252.80;;;;;;5071212;28;20017;-59
2024/01/02 02:57:36;;;;;;;55.03;27.92;;;205.00;2252.80;;;;;;5071415;28;20039;-60
2024/01/02 03:00:04;;;;;;;62.95;27.58;;;205.20;2252.80;;;;;;5071281;28;20360;-60
2024/01/02 03:02:30;;;;;;;56.78;28.13;;;205.20;2252.80;;;;;;5070976;28;20391;-60
2024/01/02 03:04:56;;;;;;;17.90;9.43;;;205.30;2252.80;;;;;;5071123;28;20066;-60
2024/01/02 03:07:21;;;;;;;10.68;6.43;;;205.30;2252.80;;;;;;5070984;28;20021;-59
2024/01/02 03:09:47;;;;;;;123.60;58.13;;;205.20;2252.80;;;;;;5070730;28;20077;-61
2024/01/02 03:12:13;;;;;;;15.98;9.05;;;205.20;2252.80;;;;;;5070394;28;20031;-61
2024/01/02 03:14:39;;;;;;;12.13;7.75;;;205.10;2252.80;;;;;;5070165;28;20028;-61
2024/01/02 03:17:05;;;;;;;13.68;8.80;;;204.80;2252.80;;;;;;5070550;28;20017;-61
2024/01/02 03:19:31;;;;;;;16.58;9.15;;;180.10;2252.80;;;;;;5070301;28;20017;-60
2024/01/02 03:21:57;;;;;;;12.73;7.40;;;180.10;2252.80;;;;;;5067313;28;20020;-61
2024/01/02 03:24:23;;;;;;;9.60;6.43;;;180.00;2252.80;;;;;;5070238;28;20551;-61
2024/01/02 03:26:48;;;;;;;10.05;6.60;;;180.00;2252.80;;;;;;5069724;28;20032;-61
2024/01/02 03:29:17;;;;;;;12.80;7.88;;;180.00;2252.80;;;;;;5067422;28;20047;-60
2024/01/02 03:31:44;;;;;;;7.75;5.10;;;180.10;2252.80;;;;;;5070048;28;20099;-60
2024/01/02 03:34:10;;;;;;;8.20;5.28;;;180.00;2252.80;;;;;;5069858;28;20024;-60
2024/01/02 03:36:36;;;;;;;25.13;14.60;;;179.90;2252.80;;;;;;5069898;28;20032;-61
2024/01/02 03:39:02;;;;;;;11.93;8.73;;;180.00;2252.80;;;;;;5069641;28;20053;-60
2024/01/02 03:41:28;;;;;;;29.02;16.10;;;180.10;2252.80;;;;;;5069749;28;20017;-59
2024/01/02 03:43:54;;;;;;;13.45;8.48;;;204.90;2252.80;;;;;;5067021;28;20036;-60
2024/01/02 03:46:20;;;;;;;62.85;34.22;;;204.90;2252.80;;;;;;5069671;28;20024;-59
2024/01/02 03:48:46;;;;;;;48.00;25.83;;;205.00;2252.80;;;;;;5069758;28;20055;-60
2024/01/02 03:51:12;;;;;;;6.18;3.53;;;205.10;2252.80;;;;;;5069350;28;20048;-60
2024/01/02 03:53:37;;;;;;;4.50;2.30;;;205.10;2252.80;;;;;;5069317;28;20020;-61
2024/01/02 03:56:04;;;;;;;6.55;4.03;;;205.10;2252.80;;;;;;5069511;28;20066;-62
2024/01/02 03:58:30;;;;;;;16.67;10.52;;;205.10;2252.80;;;;;;5069074;28;20033;-61
2024/01/02 04:00:56;;;;;;;36.05;21.00;;;205.00;2252.80;;;;;;5069431;28;20055;-61
2024/01/02 04:03:23;;;;;;;29.92;18.88;;;204.80;2252.80;;;;;;5069459;28;20036;-60
2024/01/02 04:05:49;;;;;;;22.30;13.65;;;180.00;2252.80;;;;;;5069243;28;20471;-61
2024/01/02 04:08:15;;;;;;;27.95;18.80;;;179.90;2252.80;;;;;;5066715;28;20024;-60
2024/01/02 04:10:42;;;;;;;24.40;15.88;;;179.90;2252.80;;;;;;5069101;28;20028;-59
2024/01/02 04:13:12;;;;;;;22.65;14.57;;;179.90;2252.80;;;;;;5069393;28;20342;-61
2024/01/02 04:15:38;;;;;;;19.50;13.18;;;180.00;2252.80;;;;;;5066960;28;20021;-61
2024/01/02 04:18:04;;;;;;;18.20;12.38;;;180.00;2252.80;;;;;;5069482;28;20134;-60
2024/01/02 04:20:30;;;;;;;19.73;14.77;;;179.90;2252.80;;;;;;5069193;28;20134;-61
2024/01/02 04:22:57;;;;;;;14.25;8.98;;;179.70;2252.80;;;;;;5069393;28;20058;-59
2024/01/02 04:25:23;;;;;;;12.77;8.57;;;179.80;2252.80;;;;;;5068911;28;20017;-60
2024/01/02 04:27:53;;;;;;;12.10;5.45;;;179.80;2252.80;;;;;;5069023;28;20050;-61
2024/01/02 04:30:19;;;;;;;10.32;6.70;;;179.80;2252.80;;;;;;5067123;28;20021;-60
2024/01/02 04:32:44;;;;;;;14.25;9.02;;;179.70;2252.80;;;;;;5069275;28;20522;-60
2024/01/02 04:35:11;;;;;;;24.05;13.45;;;179.60;2252.80;;;;;;5068924;28;20016;-60
2024/01/02 04:37:37;;;;;;;48.35;23.67;;;179.60;2252.80;;;;;;5068888;28;20025;-60
2024/01/02 04:40:05;;;;;;;38.20;20.73;;;179.60;2252.80;;;;;;5069128;28;20055;-61
2024/01/02 04:42:35;;;;;;;37.22;19.77;;;179.40;2252.80;;;;;;5069289;28;20040;-60
2024/01/02 04:45:02;;;;;;;55.05;32.13;;;179.40;2252.80;;;;;;5069164;28;20029;-59
2024/01/02 04:47:28;;;;;;;42.60;25.30;;;179.30;2252.80;;;;;;5069033;28;20055;-60
2024/01/02 04:49:55;;;;;;;35.22;22.50;;;179.20;2252.80;;;;;;5068992;28;20056;-60
2024/01/02 04:52:20;;;;;;;30.25;18.50;;;179.20;2252.80;;;;;;5068803;28;20023;-58
2024/01/02 04:54:47;;;;;;;47.88;29.45;;;179.20;2252.80;;;;;;5068877;28;20016;-61
2024/01/02 04:57:13;;;;;;;53.03;31.23;;;179.20;2252.80;;;;;;5069162;28;20024;-61
2024/01/02 04:59:39;;;;;;;62.53;35.13;;;154.50;2252.80;;;;;;5068799;28;20359;-60
2024/01/02 05:02:05;;;;;;;53.55;30.65;;;154.50;2252.80;;;;;;5068505;28;20044;-60
2024/01/02 05:04:30;;;;;;;39.17;22.73;;;154.50;2252.80;;;;;;5068740;28;20032;-59
2024/01/02 05:06:56;;;;;;;50.22;29.10;;;154.50;2252.80;;;;;;5068660;28;20021;-61
2024/01/02 05:09:22;;;;;;;65.35;36.67;;;154.50;2252.80;;;;;;5068551;28;20392;-60
2024/01/02 05:11:48;;;;;;;74.38;36.28;;;154.40;2252.80;;;;;;5072417;28;20028;-61
2024/01/02 05:14:17;;;;;;;70.15;40.65;;;154.30;2252.80;;;;;;5073243;28;20028;-60
2024/01/02 05:16:43;;;;;;;20.88;12.73;;;154.30;2252.80;;;;;;5072910;28;20025;-59
2024/01/02 05:19:09;;;;;;;11.05;7.10;;;154.30;2252.80;;;;;;5072976;28;20086;-61
2024/01/02 05:21:35;;;;;;;6.20;3.83;;;154.30;2252.80;;;;;;5069654;28;20585;-60
2024/01/02 05:24:01;;;;;;;15.07;7.18;;;154.40;2252.80;;;;;;5072482;28;20036;-59
2024/01/02 05:26:26;;;;;;;36.28;28.02;;;154.40;2252.80;;;;;;5072648;28;20078;-60
2024/01/02 05:28:52;;;;;;;27.75;24.73;;;154.00;2252.80;;;;;;5072605;28;20028;-59
2024/01/02 05:31:18;;;;;;;18.25;13.45;;;153.80;2252.80;;;;;;5072395;28;20077;-61
2024/01/02 05:33:44;;;;;;;15.65;12.05;;;153.60;2252.80;;;;;;5072413;28;20028;-61
2024/01/02 05:36:09;;;;;;;40.42;19.02;;;153.70;2252.80;;;;;;5072128;28;20030;-61
2024/01/02 05:38:35;;;;;;;125.53;68.60;;;153.80;2252.80;;;;;;5069535;28;20051;-60
2024/01/02 05:41:01;;;;;;;66.82;44.20;;;153.80;2252.80;;;;;;5070818;28;20064;-60
2024/01/02 05:43:27;;;;;;;46.00;23.08;;;153.80;2252.80;;;;;;5070636;28;20029;-60
2024/01/02 05:45:52;;;;;;;45.17;28.02;;;153.70;2252.80;;;;;;5070898;28;20439;-59
2024/01/02 05:48:18;;;;;;;43.85;30.13;;;153.70;2252.80;;;;;;5070616;28;20051;-60
2024/01/02 05:50:44;;;;;;;26.13;19.23;;;153.60;2252.80;;;;;;5071304;28;20108;-60
2024/01/02 05:53:10;;;;;;;27.60;17.05;;;128.90;2252.80;;;;;;5071303;28;20095;-60
2024/01/02 05:55:36;;;;;;;20.95;12.60;;;128.80;2252.80;;;;;;5071426;28;20429;-60
2024/01/02 05:58:02;;;;;;;44.53;24.25;;;128.80;2252.80;;;;;;5071618;28;20020;-60
2024/01/02 06:00:28;;;;;;;51.45;26.73;;;128.90;2252.80;;;;;;5071272;28;20102;-60
2024/01/02 06:02:53;;;;;;;37.10;21.85;;;128.90;2252.80;;;;;;5071183;28;20040;-61
2024/01/02 06:05:19;;;;;;;34.42;22.15;;;153.60;2252.80;;;;;;5071185;28;20025;-60
2024/01/02 06:07:45;;;;;;;28.65;18.77;;;153.70;2252.80;;;;;;5071000;28;20033;-60
2024/01/02 06:10:11;;;;;;;50.47;27.10;;;153.70;2252.80;;;;;;5070901;28;20032;-60
2024/01/02 06:12:37;;;;;;;110.30;58.67;;;153.70;2252.80;;;;;;5071205;28;20035;-59
2024/01/02 06:15:04;;;;;;;58.40;37.03;;;153.60;2252.80;;;;;;5071419;28;20478;-60
2024/01/02 06:17:30;;;;;;;67.50;49.00;;;153.60;2252.80;;;;;;5071055;28;20029;-60
2024/01/02 06:19:57;;;;;;;88.07;55.50;;;153.60;2252.80;;;;;;5071021;28;20476;-62
2024/01/02 06:22:23;;;;;;;52.80;32.97;;;153.60;2252.80;;;;;;5070509;28;20033;-59
2024/01/02 06:24:49;;;;;;;154.82;97.72;;;153.60;2252.80;;;;;;5070728;28;20032;-59
2024/01/02 06:27:15;;;;;;;77.20;50.88;;;128.60;2252.80;;;;;;5071392;28;20410;-60
2024/01/02 06:29:40;;;;;;;60.75;38.28;;;128.80;2252.80;;;;;;5070985;28;20048;-61
2024/01/02 06:32:06;;;;;;;28.63;17.58;;;128.40;2252.80;;;;;;5070871;28;20024;-60
2024/01/02 06:34:32;;;;;;;24.52;18.70;;;128.50;2252.80;;;;;;5071120;28;20505;-59
2024/01/02 06:36:58;;;;;;;58.85;37.83;;;128.70;2252.80;;;;;;5070214;28;20025;-60
2024/01/02 06:39:24;;;;;;;34.95;23.55;;;128.70;2252.80;;;;;;5028820;28;1218593;-60
2024/01/02 06:41:49;;;;;;;14.70;10.60;;;128.70;2252.80;;;;;;5071521;28;20078;-60
2024/01/02 06:44:15;;;;;;;8.65;5.93;;;153.60;2252.80;;;;;;5072167;28;20127;-60
2024/01/02 06:46:41;;;;;;;34.33;19.98;;;153.90;2252.80;;;;;;5071801;28;20433;-60
2024/01/02 06:49:09;;;;;;;47.50;31.45;;;154.00;2252.80;;;;;;5071794;28;20435;-61
2024/01/02 06:51:35;;;;;;;84.35;56.22;;;153.60;2252.80;;;;;;5071384;28;20033;-61
2024/01/02 06:54:01;;;;;;;116.80;80.93;;;128.70;2252.80;;;;;;5071533;28;20109;-60
2024/01/02 06:56:27;;;;;;;142.10;91.10;;;128.70;2252.80;;;;;;5071369;28;20398;-60
2024/01/02 06:58:54;;;;;;;143.45;96.82;;;128.50;2252.80;;;;;;5071810;28;20040;-60
2024/01/02 07:01:20;;;;;;;143.77;96.72;;;128.50;2252.80;;;;;;5071322;28;20032;-60
2024/01/02 07:03:47;;;;;;;110.70;75.65;;;128.50;2252.80;;;;;;5071469;28;20040;-60
2024/01/02 07:06:13;;;;;;;78.82;51.47;;;128.50;2252.80;;;;;;5071419;28;20021;-60
2024/01/02 07:08:39;;;;;;;70.88;45.53;;;128.40;2252.80;;;;;;5071030;28;20070;-60
2024/01/02 07:11:04;;;;;;;70.90;47.20;;;128.40;2252.80;;;;;;5071473;28;20433;-61
2024/01/02 07:13:30;;;;;;;94.18;58.95;;;128.40;2252.80;;;;;;5070402;28;20025;-59
2024/01/02 07:15:56;;;;;;;91.70;58.15;;;128.50;2252.80;;;;;;5071222;28;20490;-60
2024/01/02 07:18:22;;;;;;;89.80;55.90;;;128.70;2252.80;;;;;;5071143;28;20024;-60
2024/01/02 07:20:48;;;;;;;81.22;51.13;;;128.80;2252.80;;;;;;5071045;28;20074;-61
2024/01/02 07:23:13;;;;;;;79.25;49.33;;;128.90;2252.80;;;;;;5070954;28;20033;-60
2024/01/02 07:25:39;;;;;;;79.93;53.72;;;128.90;2252.80;;;;;;5069819;28;20383;-60
2024/01/02 07:28:05;;;;;;;90.38;60.42;;;128.90;2252.80;;;;;;5070351;28;20029;-60
2024/01/02 07:30:31;;;;;;;86.43;56.05;;;153.60;2252.80;;;;;;5070293;28;20020;-59
2024/01/02 07:32:57;;;;;;;74.38;51.22;;;153.70;2252.80;;;;;;5069724;28;20035;-60
2024/01/02 07:35:23;;;;;;;89.45;60.42;;;153.80;2252.80;;;;;;5070211;28;20067;-58
2024/01/02 07:37:49;;;;;;;99.80;69.63;;;153.80;2252.80;;;;;;5069521;28;20052;-61
2024/01/02 07:40:15;;;;;;;150.73;106.72;;;153.80;2252.80;;;;;;5069894;28;20063;-60
2024/01/02 07:42:41;;;;;;;145.43;99.68;;;153.70;2252.80;;;;;;5069612;28;20478;-59
2024/01/02 07:45:08;;;;;;;126.50;84.10;;;153.70;2252.80;;;;;;5069946;28;20060;-62
2024/01/02 07:47:34;;;;;;;104.22;74.97;;;153.80;2252.80;;;;;;5069944;28;20115;-61
2024/01/02 07:50:01;;;;;;;109.78;76.80;;;153.80;2252.80;;;;;;5069722;28;20124;-60
2024/01/02 07:52:26;;;;;;;118.90;83.38;;;153.90;2252.80;;;;;;5069872;28;20028;-59
2024/01/02 07:54:52;;;;;;;141.30;99.60;;;153.90;2252.80;;;;;;5069410;28;20090;-59
2024/01/02 07:57:18;;;;;;;168.90;109.50;;;154.00;2252.80;;;;;;5069168;28;20489;-59
2024/01/02 07:59:44;;;;;;;206.65;125.15;;;154.10;2252.80;;;;;;5069834;28;20013;-59
2024/01/02 08:02:09;;;;;;;148.80;101.82;;;154.10;2252.80;;;;;;5069600;28;20057;-59
2024/01/02 08:04:35;;;;;;;175.15;120.35;;;154.20;2252.80;;;;;;5069588;28;20103;-58
2024/01/02 08:07:01;;;;;;;123.00;85.50;;;154.20;2252.80;;;;;;5069654;28;20056;-60
2024/01/02 08:09:27;;;;;;;126.18;87.80;;;154.20;2252.80;;;;;;5069935;28;20675;-60
2024/01/02 08:11:53;;;;;;;110.70;74.88;;;154.30;2252.80;;;;;;5052330;28;20424;-60
2024/01/02 08:14:19;;;;;;;90.93;64.07;;;154.40;2252.80;;;;;;5069264;28;20028;-60
2024/01/02 08:16:45;;;;;;;78.68;52.53;;;154.50;2252.80;;;;;;5069772;28;20031;-60
2024/01/02 08:19:11;;;;;;;76.72;53.33;;;179.30;2252.80;;;;;;5069826;28;20387;-61
2024/01/02 08:21:36;;;;;;;102.90;70.43;;;179.30;2252.80;;;;;;5069871;28;20032;-60
2024/01/02 08:24:03;;;;;;;95.65;69.40;;;179.40;2252.80;;;;;;5069912;28;20038;-60
2024/01/02 08:26:28;;;;;;;190.35;144.57;;;179.60;2252.80;;;;;;5069819;28;20044;-62
2024/01/02 08:28:54;;;;;;;232.13;173.13;;;179.70;2252.80;;;;;;5069683;28;20035;-61
2024/01/02 08:31:20;;;;;;;202.68;149.35;;;205.40;2252.80;;;;;;5069598;28;20024;-61
2024/01/02 08:33:46;;;;;;;203.32;149.88;;;205.70;2252.80;;;;;;5069786;28;20024;-61
2024/01/02 08:36:12;;;;;;;169.23;123.82;;;230.60;2252.80;;;;;;5068947;28;20395;-60
2024/01/02 08:38:40;;;;;;;220.35;157.35;;;230.40;2252.80;;;;;;5068998;28;20048;-59
2024/01/02 08:41:08;;;;;;;225.15;171.27;;;205.70;2252.80;;;;;;5069061;28;20040;-61
2024/01/02 08:43:33;;;;;;;225.75;172.27;;;205.60;2252.80;;;;;;5068897;28;20029;-60
2024/01/02 08:46:00;;;;;;;216.70;164.20;;;205.50;2252.80;;;;;;5051110;28;20040;-59
2024/01/02 08:48:25;;;;;;;261.35;197.70;;;230.70;2252.80;;;;;;5069251;28;20090;-60
2024/01/02 08:50:51;;;;;;;243.82;201.85;;;256.50;2252.80;;;;;;5068622;28;20475;-60
2024/01/02 08:53:17;;;;;;;225.68;190.20;;;282.00;2278.40;;;;;;5068510;28;20025;-62
2024/01/02 08:55:42;;;;;;;226.43;186.98;;;307.70;2304.00;;;;;;5068082;28;20548;-60
2024/01/02 08:58:08;;;;;;;178.88;150.90;;;333.40;2329.60;;;;;;5068590;28;20459;-60
2024/01/02 09:00:34;;;;;;;212.15;172.45;;;333.00;2329.60;;;;;;5068724;28;20107;-60
2024/01/02 09:03:01;;;;;;;187.23;154.45;;;333.00;2329.60;;;;;;5068408;28;20071;-60
2024/01/02 09:05:27;;;;;;;420.75;297.60;;;333.10;2329.60;;;;;;5067044;28;20024;-60
2024/01/02 09:07:53;;;;;;;138.10;112.95;;;333.20;2329.60;;;;;;5067867;28;20391;-61
2024/01/02 09:10:19;;;;;;;84.10;70.82;;;333.50;2329.60;;;;;;5068279;28;20033;-58
2024/01/02 09:12:45;;;;;;;65.03;53.90;;;358.40;2329.60;;;;;;5068673;28;20024;-58
2024/01/02 09:15:11;;;;;;;84.80;66.63;;;359.00;2252.80;;;;;;5068457;28;20086;-58
2024/01/02 09:17:36;;;;;;;75.00;62.45;;;384.20;2227.20;;;;;;5068644;28;20020;-58
2024/01/02 09:20:04;;;;;;;22.25;18.98;;;410.50;2124.80;;;;;;5068693;28;20060;-58
2024/01/02 09:22:31;;;;;;;20.00;16.77;;;435.60;2048.00;;;;;;5068753;28;20417;-59
2024/01/02 09:24:59;;;;;;;58.58;52.88;;;461.10;1996.80;;;;;;5067958;28;20021;-59
2024/01/02 09:27:28;;;;;;;15.20;12.77;;;461.40;1945.60;;;;;;5067583;28;20082;-59
2024/01/02 09:29:54;;;;;;;206.90;98.53;;;461.60;1894.40;;;;;;5065068;28;20024;-59
2024/01/02 09:32:21;;;;;;;57.83;25.60;;;461.40;1920.00;;;;;;5068367;28;20017;-60
2024/01/02 09:34:47;;;;;;;62.90;27.67;;;435.90;1945.60;;;;;;5068189;28;20033;-60
2024/01/02 09:37:13;;;;;;;104.75;60.40;;;435.30;1971.20;;;;;;5068294;28;20029;-59
2024/01/02 09:39:39;;;;;;;68.70;35.30;;;410.00;2048.00;;;;;;5067812;28;20119;-59
2024/01/02 09:42:20;;;;;;;79.45;34.33;;;384.90;2073.60;;;;;;5068580;28;20039;-60
2024/01/02 09:44:54;;;;;;;79.53;34.75;;;384.10;2124.80;;;;;;5068749;28;20628;-60
2024/01/02 09:47:42;;;;;;;187.95;89.55;;;358.60;2201.60;;;;;;5050378;28;20021;-58
2024/01/02 09:50:21;;;;;;;103.32;61.03;;;333.50;2278.40;;;;;;5062469;28;20104;-60
2024/01/02 09:53:05;;;;;;;302.70;171.23;;;332.90;2329.60;;;;;;5056722;28;20025;-60
2024/01/02 09:55:39;;;;;;;191.05;75.63;;;308.10;2304.00;;;;;;5057607;28;20425;-59
2024/01/02 09:58:25;;;;;;;226.52;84.65;;;307.70;2304.00;;;;;;5062624;28;20028;-58
2024/01/02 10:01:09;;;;;;;23.45;12.27;;;307.60;2304.00;;;;;;5068046;28;20032;-59
2024/01/02 10:03:53;;;;;;;;;;;307.30;2304.00;;;;;;5068221;28;20094;-58
2024/01/02 10:06:32;;;;;;;196.05;78.97;;;307.30;2304.00;;;;;;5067083;28;19923;-59
2024/01/02 10:09:16;;;;;;;218.57;82.47;;;307.20;2304.00;;;;;;5059672;28;20471;-58
2024/01/02 10:12:16;;;;;;;673.15;433.10;;;307.30;2304.00;;;;;;5046995;28;20387;-58
2024/01/02 10:14:58;;;;;;;381.92;151.25;;;282.50;2278.40;;;;;;5065955;28;20471;-59
2024/01/02 10:17:32;;;;;;;166.18;66.43;;;282.40;2278.40;;;;;;5062225;28;20036;-60
2024/01/02 10:20:31;;;;;;;229.98;97.07;;;282.50;2278.40;;;;;;5066774;28;20115;-59
2024/01/02 10:23:28;;;;;;;242.63;113.38;;;282.50;2278.40;;;;;;5062052;28;20033;-59
2024/01/02 10:26:00;;;;;;;239.90;117.10;;;307.20;2304.00;;;;;;5062797;28;20087;-59
2024/01/02 10:28:27;;;;;;;274.48;112.03;;;282.50;2278.40;;;;;;5058366;28;20032;-60
2024/01/02 10:31:08;;;;;;;233.60;101.55;;;307.20;2304.00;;;;;;5061514;28;20050;-57
2024/01/02 10:33:57;;;;;;;198.25;83.85;;;307.20;2304.00;;;;;;5056627;28;20072;-59
2024/01/02 10:36:26;;;;;;;219.50;97.13;;;307.20;2304.00;;;;;;5068324;28;20047;-57
2024/01/02 10:39:04;;;;;;;158.65;79.80;;;307.20;2304.00;;;;;;5066896;28;20489;-58
2024/01/02 10:41:42;;;;;;;110.35;77.93;;;307.20;2304.00;;;;;;5056411;28;20108;-58
2024/01/02 10:44:38;;;;;;;125.38;67.65;;;282.50;2278.40;;;;;;5062528;28;20041;-59
2024/01/02 10:47:16;;;;;;;294.00;148.68;;;282.50;2278.40;;;;;;5059120;28;20152;-60
2024/01/02 10:49:55;;;;;;;167.93;90.30;;;282.50;2278.40;;;;;;5066259;28;20024;-58
2024/01/02 10:52:25;;;;;;;205.00;121.13;;;307.20;2304.00;;;;;;5063962;28;20115;-60
2024/01/02 10:55:12;;;;;;;175.73;117.00;;;307.20;2304.00;;;;;;5040346;28;20041;-59
2024/01/02 10:57:59;;;;;;;125.18;91.22;;;307.20;2304.00;;;;;;5057728;28;20021;-59
2024/01/02 11:00:42;;;;;;;69.65;52.83;;;307.30;2304.00;;;;;;5070137;28;20039;-59
2024/01/02 11:03:10;;;;;;;61.67;42.63;;;307.30;2304.00;;;;;;5060446;28;20036;-59
2024/01/02 11:05:43;;;;;;;90.85;61.15;;;307.40;2304.00;;;;;;5059204;28;20106;-60
2024/01/02 11:08:30;;;;;;;65.57;43.65;;;307.50;2304.00;;;;;;5056921;28;20039;-59
2024/01/02 11:10:58;;;;;;;61.40;42.83;;;307.50;2304.00;;;;;;5061820;28;20093;-60
2024/01/02 11:13:26;;;;;;;52.17;36.90;;;307.60;2304.00;;;;;;5056617;28;20372;-59
2024/01/02 11:15:58;;;;;;;91.95;60.25;;;307.60;2304.00;;;;;;5071709;28;20430;-59
2024/01/02 11:18:27;;;;;;;94.78;68.70;;;307.50;2304.00;;;;;;5076965;28;20021;-59
2024/01/02 11:21:06;;;;;;;67.38;44.70;;;307.80;2304.00;;;;;;5077993;28;20017;-59
2024/01/02 11:23:38;;;;;;;60.90;40.95;;;307.80;2304.00;;;;;;5070648;28;20032;-59
2024/01/02 11:26:13;;;;;;;42.47;28.33;;;307.80;2304.00;;;;;;5057940;28;20040;-60
2024/01/02 11:28:42;;;;;;;57.83;40.00;;;307.90;2304.00;;;;;;5071442;28;20064;-58
2024/01/02 11:31:13;;;;;;;19.48;15.85;;;308.00;2304.00;;;;;;5081188;28;20021;-60
2024/01/02 11:33:50;;;;;;;21.60;15.38;;;308.00;2304.00;;;;;;5070322;28;20102;-60
2024/01/02 11:36:27;;;;;;;63.85;41.20;;;308.00;2304.00;;;;;;5070437;28;20021;-59
2024/01/02 11:39:08;;;;;;;57.00;40.03;;;308.10;2304.00;;;;;;5070000;28;20047;-59
2024/01/02 11:41:49;;;;;;;37.75;25.48;;;332.80;2329.60;;;;;;5070402;28;20029;-60
2024/01/02 11:44:36;;;;;;;82.20;53.13;;;332.80;2329.60;;;;;;5070154;28;20495;-59
2024/01/02 11:47:04;;;;;;;45.08;25.88;;;332.80;2329.60;;;;;;5070435;28;20032;-60
2024/01/02 11:49:31;;;;;;;31.17;20.73;;;333.00;2329.60;;;;;;5070291;28;20425;-59
2024/01/02 11:52:03;;;;;;;52.13;41.80;;;333.00;2329.60;;;;;;5070370;28;20031;-59
2024/01/02 11:54:43;;;;;;;78.35;53.58;;;333.00;2329.60;;;;;;5069792;28;20052;-60
2024/01/02 11:57:23;;;;;;;178.80;100.60;;;333.00;2329.60;;;;;;5070027;28;20016;-59
2024/01/02 11:59:57;;;;;;;143.82;94.55;;;333.00;2329.60;;;;;;5069881;28;20035;-59
2024/01/02 12:02:45;;;;;;;217.63;113.40;;;333.20;2329.60;;;;;;5070180;28;20059;-60